createdAt,value
2023-03-18T00:01:13.212Z,101051.94
2023-03-18T00:03:41.620Z,101048.65
2023-03-18T00:06:15.924Z,101051.36
2023-03-18T00:08:45.417Z,101051.32
2023-03-18T00:11:14.575Z,101050.33
2023-03-18T00:13:43.544Z,101048.54
2023-03-18T00:16:20.058Z,101049.62
2023-03-18T00:18:48.913Z,101048.45
2023-03-18T00:21:17.078Z,101047.92
2023-03-18T00:23:45.688Z,101049.14
2023-03-18T00:26:15.985Z,101042.51
2023-03-18T00:28:44.352Z,101045.52
2023-03-18T00:31:13.935Z,101046.17
2023-03-18T00:33:45.889Z,101048.45
2023-03-18T00:36:16.800Z,101049.27
2023-03-18T00:38:46.270Z,101047.30
2023-03-18T00:41:16.317Z,101057.49
2023-03-18T00:43:46.968Z,101057.10
2023-03-18T00:46:18.161Z,101055.68
2023-03-18T00:48:51.301Z,101054.27
2023-03-18T00:51:20.699Z,101052.02
2023-03-18T00:53:56.145Z,101053.09
2023-03-18T00:56:25.821Z,101056.42
2023-03-18T00:58:54.309Z,101051.61
2023-03-18T01:01:23.470Z,101051.42
2023-03-18T01:03:53.509Z,101056.05
2023-03-18T01:06:25.697Z,101062.23
2023-03-18T01:08:54.338Z,101063.09
2023-03-18T01:11:23.293Z,101063.48
2023-03-18T01:13:51.839Z,101064.33
2023-03-18T01:16:21.085Z,101069.02
2023-03-18T01:18:49.168Z,101074.02
2023-03-18T01:21:19.145Z,101068.27
2023-03-18T01:23:51.501Z,101069.14
2023-03-18T01:26:19.849Z,101075.36
2023-03-18T01:28:48.132Z,101076.11
2023-03-18T01:31:16.455Z,101072.66
2023-03-18T01:33:46.020Z,101074.10
2023-03-18T01:36:16.015Z,101079.19
2023-03-18T01:38:44.954Z,101079.05
2023-03-18T01:41:17.409Z,101084.33
2023-03-18T01:43:46.209Z,101085.05
2023-03-18T01:46:34.961Z,101089.38
2023-03-18T01:49:07.935Z,101092.92
2023-03-18T01:51:36.110Z,101091.45
2023-03-18T01:54:05.578Z,101091.70
2023-03-18T01:56:34.320Z,101092.20
2023-03-18T01:59:03.730Z,101096.26
2023-03-18T02:02:01.421Z,101097.73
2023-03-18T02:04:35.333Z,101098.08
2023-03-18T02:07:04.360Z,101094.73
2023-03-18T02:09:32.772Z,101094.66
2023-03-18T02:12:03.931Z,101101.59
2023-03-18T02:14:32.789Z,101100.14
2023-03-18T02:17:03.499Z,101099.88
2023-03-18T02:20:03.197Z,101101.70
2023-03-18T02:22:38.482Z,101106.73
2023-03-18T02:25:31.983Z,101104.58
2023-03-18T02:28:06.293Z,101112.45
2023-03-18T02:30:44.096Z,101108.69
2023-03-18T02:33:16.083Z,101112.14
2023-03-18T02:35:50.478Z,101116.91
2023-03-18T02:38:20.020Z,101116.25
2023-03-18T02:40:49.087Z,101115.58
2023-03-18T02:43:24.711Z,101112.73
2023-03-18T02:46:30.031Z,101114.30
2023-03-18T02:48:59.978Z,101113.41
2023-03-18T02:51:28.334Z,101114.84
2023-03-18T02:54:01.693Z,101116.68
2023-03-18T02:56:30.172Z,101120.48
2023-03-18T02:58:58.593Z,101119.02
2023-03-18T03:01:28.005Z,101119.82
2023-03-18T03:03:56.693Z,101116.02
2023-03-18T03:06:25.680Z,101117.02
2023-03-18T03:08:54.597Z,101115.73
2023-03-18T03:11:23.770Z,101120.11
2023-03-18T03:13:52.046Z,101118.35
2023-03-18T03:16:20.813Z,101114.39
2023-03-18T03:18:49.010Z,101120.39
2023-03-18T03:21:20.773Z,101129.16
2023-03-18T03:23:50.166Z,101130.40
2023-03-18T03:26:21.220Z,101130.85
2023-03-18T03:28:49.855Z,101132.75
2023-03-18T03:31:18.229Z,101127.98
2023-03-18T03:33:46.431Z,101126.86
2023-03-18T03:36:16.487Z,101127.36
2023-03-18T03:38:47.211Z,101136.30
2023-03-18T03:41:16.024Z,101137.86
2023-03-18T03:43:44.976Z,101144.18
2023-03-18T03:46:13.203Z,101142.47
2023-03-18T03:48:42.653Z,101142.24
2023-03-18T03:51:15.101Z,101141.23
2023-03-18T03:53:46.280Z,101141.63
2023-03-18T03:56:15.756Z,101147.02
2023-03-18T03:58:45.926Z,101146.46
2023-03-18T04:01:14.480Z,101140.64
2023-03-18T04:03:44.938Z,101138.46
2023-03-18T04:06:13.495Z,101143.80
2023-03-18T04:08:47.729Z,101146.19
2023-03-18T04:11:17.750Z,101144.41
2023-03-18T04:13:46.712Z,101139.70
2023-03-18T04:16:19.944Z,101146.40
2023-03-18T04:18:50.851Z,101145.84
2023-03-18T04:21:22.278Z,101149.67
2023-03-18T04:23:55.655Z,101140.25
2023-03-18T04:26:24.273Z,101147.63
2023-03-18T04:28:57.750Z,101145.20
2023-03-18T04:31:25.981Z,101146.30
2023-03-18T04:33:55.548Z,101146.23
2023-03-18T04:36:24.641Z,101145.95
2023-03-18T04:38:53.227Z,101146.14
2023-03-18T04:41:22.945Z,101145.47
2023-03-18T04:43:51.567Z,101142.11
2023-03-18T04:46:19.884Z,101147.30
2023-03-18T04:48:49.545Z,101147.79
2023-03-18T04:51:18.870Z,101148.00
2023-03-18T04:53:49.324Z,101148.46
2023-03-18T04:56:19.559Z,101151.05
2023-03-18T04:58:50.951Z,101151.32
2023-03-18T05:01:22.373Z,101155.95
2023-03-18T05:03:51.190Z,101154.88
2023-03-18T05:06:25.368Z,101154.02
2023-03-18T05:09:00.523Z,101154.10
2023-03-18T05:11:33.831Z,101155.59
2023-03-18T05:14:08.255Z,101160.33
2023-03-18T05:16:42.555Z,101164.62
2023-03-18T05:19:14.029Z,101161.77
2023-03-18T05:21:49.116Z,101164.69
2023-03-18T05:24:19.305Z,101163.44
2023-03-18T05:26:52.651Z,101162.46
2023-03-18T05:29:24.087Z,101164.52
2023-03-18T05:32:11.388Z,101162.45
2023-03-18T05:34:40.804Z,101158.14
2023-03-18T05:37:11.684Z,101157.40
2023-03-18T05:39:45.069Z,101156.95
2023-03-18T05:42:15.276Z,101161.95
2023-03-18T05:44:47.121Z,101163.48
2023-03-18T05:47:15.922Z,101160.73
2023-03-18T05:49:52.890Z,101164.38
2023-03-18T05:52:24.755Z,101168.91
2023-03-18T05:54:55.738Z,101171.03
2023-03-18T05:57:28.505Z,101171.94
2023-03-18T06:00:00.974Z,101175.55
2023-03-18T06:02:32.870Z,101175.89
2023-03-18T06:05:01.574Z,101177.91
2023-03-18T06:07:30.670Z,101178.05
2023-03-18T06:10:01.142Z,101176.55
2023-03-18T06:12:30.664Z,101179.24
2023-03-18T06:14:59.727Z,101178.29
2023-03-18T06:17:28.115Z,101183.44
2023-03-18T06:19:59.189Z,101183.30
2023-03-18T06:22:28.149Z,101182.70
2023-03-18T06:25:01.424Z,101183.31
2023-03-18T06:27:30.499Z,101185.27
2023-03-18T06:30:08.461Z,101189.84
2023-03-18T06:32:38.094Z,101184.02
2023-03-18T06:35:11.015Z,101186.77
2023-03-18T06:37:40.205Z,101190.34
2023-03-18T06:40:09.537Z,101193.20
2023-03-18T06:42:38.057Z,101194.77
2023-03-18T06:45:13.759Z,101196.46
2023-03-18T06:47:51.469Z,101195.07
2023-03-18T06:50:20.767Z,101195.47
2023-03-18T06:52:49.631Z,101195.56
2023-03-18T06:55:20.068Z,101195.92
2023-03-18T06:57:48.515Z,101201.85
2023-03-18T07:00:19.977Z,101202.28
2023-03-18T07:02:49.825Z,101206.90
2023-03-18T07:05:20.733Z,101208.53
2023-03-18T07:07:51.002Z,101210.48
2023-03-18T07:10:24.574Z,101206.52
2023-03-18T07:12:58.684Z,101207.52
2023-03-18T07:15:27.469Z,101206.77
2023-03-18T07:17:57.080Z,101206.70
2023-03-18T07:20:25.990Z,101200.98
2023-03-18T07:22:54.274Z,101201.12
2023-03-18T07:25:23.056Z,101203.52
2023-03-18T07:27:53.362Z,101203.73
2023-03-18T07:30:21.947Z,101202.99
2023-03-18T07:32:50.891Z,101206.19
2023-03-18T07:35:19.160Z,101207.43
2023-03-18T07:37:48.388Z,101210.13
2023-03-18T07:40:16.905Z,101209.48
2023-03-18T07:42:46.503Z,101205.80
2023-03-18T07:45:17.329Z,101197.71
2023-03-18T07:47:47.218Z,101205.77
2023-03-18T07:50:16.298Z,101204.88
2023-03-18T07:52:48.403Z,101202.27
2023-03-18T07:55:16.777Z,101198.98
2023-03-18T07:57:47.517Z,101200.33
2023-03-18T08:00:17.022Z,101194.66
2023-03-18T08:02:45.473Z,101194.48
2023-03-18T08:05:16.381Z,101197.32
2023-03-18T08:07:45.295Z,101195.40
2023-03-18T08:10:15.081Z,101199.14
2023-03-18T08:12:53.054Z,101200.96
2023-03-18T08:15:22.588Z,101200.50
2023-03-18T08:17:54.248Z,101204.23
2023-03-18T08:20:23.310Z,101204.21
2023-03-18T08:22:52.031Z,101200.96
2023-03-18T08:25:23.793Z,101199.23
2023-03-18T08:27:52.559Z,101199.14
2023-03-18T08:30:20.705Z,101204.33
2023-03-18T08:32:49.371Z,101200.79
2023-03-18T08:35:20.244Z,101207.33
2023-03-18T08:37:51.227Z,101206.52
2023-03-18T08:40:20.533Z,101207.05
2023-03-18T08:42:49.240Z,101209.90
2023-03-18T08:45:17.872Z,101207.27
2023-03-18T08:47:45.886Z,101210.83
2023-03-18T08:50:14.632Z,101209.48
2023-03-18T08:52:43.672Z,101209.86
2023-03-18T08:55:11.663Z,101204.06
2023-03-18T08:57:40.205Z,101207.79
2023-03-18T09:00:10.089Z,101207.13
2023-03-18T09:02:44.401Z,101207.41
2023-03-18T09:05:13.908Z,101200.30
2023-03-18T09:07:41.947Z,101201.98
2023-03-18T09:10:13.156Z,101200.27
2023-03-18T09:12:42.432Z,101199.67
2023-03-18T09:15:11.506Z,101203.89
2023-03-18T09:17:56.548Z,101205.53
2023-03-18T09:20:28.611Z,101211.27
2023-03-18T09:23:00.250Z,101211.59
2023-03-18T09:25:28.583Z,101207.65
2023-03-18T09:27:56.777Z,101209.35
2023-03-18T09:30:33.889Z,101211.64
2023-03-18T09:33:02.467Z,101209.61
2023-03-18T09:35:35.516Z,101212.45
2023-03-18T09:38:04.882Z,101213.89
2023-03-18T09:40:37.912Z,101208.67
2023-03-18T09:43:29.774Z,101212.13
2023-03-18T09:46:22.087Z,101205.23
2023-03-18T09:49:25.993Z,101201.84
2023-03-18T09:52:09.998Z,101202.27
2023-03-18T09:54:41.437Z,101202.67
2023-03-18T09:57:17.536Z,101201.36
2023-03-18T09:59:47.958Z,101198.81
2023-03-18T10:02:49.739Z,101200.18
2023-03-18T10:05:32.805Z,101193.39
2023-03-18T10:08:13.222Z,101194.30
2023-03-18T10:10:44.094Z,101193.36
2023-03-18T10:13:36.806Z,101194.67
2023-03-18T10:16:06.148Z,101190.83
2023-03-18T10:18:39.783Z,101192.64
2023-03-18T10:21:27.794Z,101186.30
2023-03-18T10:24:15.388Z,101186.62
2023-03-18T10:26:52.667Z,101191.90
2023-03-18T10:29:28.431Z,101190.51
2023-03-18T10:32:46.341Z,101192.33
2023-03-18T10:35:39.150Z,101192.67
2023-03-18T10:38:43.365Z,101187.86
2023-03-18T10:41:16.190Z,101186.20
2023-03-18T10:43:46.119Z,101182.77
2023-03-18T10:46:35.929Z,101177.37
2023-03-18T10:49:08.221Z,101176.07
2023-03-18T10:51:42.097Z,101176.33
2023-03-18T10:54:24.280Z,101171.77
2023-03-18T10:56:53.557Z,101171.13
2023-03-18T10:59:22.885Z,101173.34
2023-03-18T11:02:16.272Z,101170.42
2023-03-18T11:04:54.538Z,101175.02
2023-03-18T11:07:26.042Z,101171.89
2023-03-18T11:09:58.033Z,101171.77
2023-03-18T11:12:28.828Z,101171.25
2023-03-18T11:14:58.086Z,101172.30
2023-03-18T11:20:47.572Z,101169.86
2023-03-18T11:23:19.182Z,101164.15
2023-03-18T11:25:48.684Z,101162.08
2023-03-18T11:28:23.402Z,101158.41
2023-03-18T11:30:56.198Z,101158.48
2023-03-18T11:33:25.836Z,101148.81
2023-03-18T11:35:57.645Z,101141.23
2023-03-18T11:38:33.600Z,101137.40
2023-03-18T11:54:48.542Z,101134.83
2023-03-18T11:57:23.993Z,101126.95
2023-03-18T12:00:09.837Z,101125.78
2023-03-18T12:02:49.950Z,101124.05
2023-03-18T12:05:35.530Z,101117.82
2023-03-18T12:08:24.502Z,101117.54
2023-03-18T12:11:05.468Z,101116.89
2023-03-18T12:13:46.765Z,101112.09
2023-03-18T12:29:10.004Z,101102.29
2023-03-18T12:31:48.869Z,101092.89
2023-03-18T12:34:23.050Z,101098.29
2023-03-18T12:36:59.741Z,101096.13
2023-03-18T12:39:37.067Z,101095.05
2023-03-18T12:42:39.101Z,101094.92
2023-03-18T12:45:13.448Z,101091.63
2023-03-18T12:47:49.860Z,101092.00
2023-03-18T12:50:26.045Z,101092.63
2023-03-18T12:53:16.550Z,101089.22
2023-03-18T12:55:50.383Z,101088.06
2023-03-18T12:58:24.763Z,101089.86
2023-03-18T13:00:54.709Z,101089.93
2023-03-18T13:03:44.859Z,101085.99
2023-03-18T13:06:19.076Z,101084.84
2023-03-18T13:09:00.562Z,101078.44
2023-03-18T13:11:54.707Z,101076.80
2023-03-18T13:14:39.433Z,101076.63
2023-03-18T13:17:14.022Z,101071.23
2023-03-18T13:19:42.185Z,101070.50
2023-03-18T13:22:29.141Z,101065.52
2023-03-18T13:25:06.130Z,101067.55
2023-03-18T13:27:53.328Z,101064.02
2023-03-18T13:30:56.919Z,101061.59
2023-03-18T13:33:51.095Z,101060.81
2023-03-18T13:36:32.004Z,101056.67
2023-03-18T13:39:32.814Z,101052.05
2023-03-18T13:42:20.621Z,101055.70
2023-03-18T13:45:11.037Z,101054.55
2023-03-18T13:47:39.330Z,101055.21
2023-03-18T13:50:27.169Z,101051.32
2023-03-18T13:52:56.034Z,101051.90
2023-03-18T13:55:39.804Z,101050.01
2023-03-18T13:58:17.683Z,101051.17
2023-03-18T14:01:09.214Z,101049.89
2023-03-18T14:03:53.443Z,101051.17
2023-03-18T14:06:44.766Z,101048.22
2023-03-18T14:09:25.393Z,101054.43
2023-03-18T14:11:53.767Z,101050.55
2023-03-18T14:14:41.881Z,101052.47
2023-03-18T14:17:35.477Z,101052.44
2023-03-18T14:20:17.563Z,101056.67
2023-03-18T14:22:47.294Z,101049.34
2023-03-18T14:25:18.107Z,101053.23
2023-03-18T14:27:52.293Z,101053.83
2023-03-18T14:30:32.433Z,101048.92
2023-03-18T14:33:27.066Z,101052.52
2023-03-18T14:36:10.103Z,101052.55
2023-03-18T14:38:53.160Z,101052.83
2023-03-18T14:41:22.690Z,101050.23
2023-03-18T14:44:18.604Z,101049.75
2023-03-18T14:46:46.793Z,101050.66
2023-03-18T14:49:36.063Z,101046.27
2023-03-18T14:52:15.891Z,101044.52
2023-03-18T14:54:46.128Z,101041.84
2023-03-18T14:57:14.486Z,101041.84
2023-03-18T14:59:44.819Z,101043.16
2023-03-18T15:02:30.621Z,101040.98
2023-03-18T15:04:59.436Z,101040.27
2023-03-18T15:07:38.230Z,101037.35
2023-03-18T15:10:12.855Z,101038.64
2023-03-18T15:12:42.820Z,101036.52
2023-03-18T15:15:14.785Z,101038.28
2023-03-18T15:17:49.204Z,101038.59
2023-03-18T15:20:21.975Z,101038.94
2023-03-18T15:22:50.464Z,101036.35
2023-03-18T15:25:20.749Z,101039.20
2023-03-18T15:27:50.115Z,101039.45
2023-03-18T15:30:29.266Z,101038.02
2023-03-18T15:33:08.216Z,101042.83
2023-03-18T15:35:37.617Z,101046.41
2023-03-18T15:38:12.350Z,101042.73
2023-03-18T15:40:47.947Z,101042.63
2023-03-18T15:43:35.706Z,101039.62
2023-03-18T15:46:08.128Z,101045.92
2023-03-18T15:48:42.229Z,101045.05
2023-03-18T15:51:26.959Z,101045.98
2023-03-18T15:54:03.506Z,101048.30
2023-03-18T15:56:33.433Z,101054.07
2023-03-18T15:59:16.064Z,101052.27
2023-03-18T16:01:44.285Z,101050.95
2023-03-18T16:04:15.200Z,101057.50
2023-03-18T16:06:44.480Z,101056.24
2023-03-18T16:09:17.405Z,101059.86
2023-03-18T16:11:58.459Z,101057.44
2023-03-18T16:14:53.306Z,101056.69
2023-03-18T16:17:22.235Z,101054.89
2023-03-18T16:19:55.257Z,101060.98
2023-03-18T16:22:23.370Z,101060.88
2023-03-18T16:24:51.897Z,101061.98
2023-03-18T16:27:39.500Z,101059.55
2023-03-18T16:30:23.455Z,101057.33
2023-03-18T16:32:52.261Z,101060.73
2023-03-18T16:35:25.504Z,101058.95
2023-03-18T16:37:53.686Z,101061.29
2023-03-18T16:40:24.855Z,101062.48
2023-03-18T16:42:55.532Z,101060.06
2023-03-18T16:45:31.264Z,101055.88
2023-03-18T16:48:11.128Z,101058.45
2023-03-18T16:50:41.736Z,101055.79
2023-03-18T16:53:27.826Z,101060.93
2023-03-18T16:55:59.844Z,101058.94
2023-03-18T16:58:36.594Z,101055.48
2023-03-18T17:01:07.799Z,101052.73
2023-03-18T17:03:36.644Z,101053.39
2023-03-18T17:06:09.342Z,101054.14
2023-03-18T17:08:43.216Z,101053.52
2023-03-18T17:11:16.394Z,101052.10
2023-03-18T17:13:44.923Z,101050.27
2023-03-18T17:16:18.218Z,101049.73
2023-03-18T17:18:46.254Z,101051.77
2023-03-18T17:21:17.088Z,101049.15
2023-03-18T17:23:47.789Z,101051.00
2023-03-18T17:26:16.493Z,101055.66
2023-03-18T17:28:48.736Z,101055.97
2023-03-18T17:31:17.538Z,101052.41
2023-03-18T17:33:51.249Z,101051.81
2023-03-18T17:36:20.765Z,101056.60
2023-03-18T17:38:49.120Z,101064.91
2023-03-18T17:41:20.190Z,101063.75
2023-03-18T17:43:52.907Z,101065.09
2023-03-18T17:46:21.142Z,101063.58
2023-03-18T17:48:49.892Z,101068.83
2023-03-18T17:51:23.677Z,101070.89
2023-03-18T17:53:56.830Z,101071.55
2023-03-18T17:56:27.070Z,101070.12
2023-03-18T17:58:56.638Z,101066.58
2023-03-18T18:01:29.139Z,101068.50
2023-03-18T18:03:58.079Z,101070.54
2023-03-18T18:06:34.419Z,101069.30
2023-03-18T18:09:05.998Z,101068.91
2023-03-18T18:11:47.105Z,101068.64
2023-03-18T18:14:19.321Z,101067.73
2023-03-18T18:16:47.839Z,101074.63
2023-03-18T18:19:24.445Z,101073.17
2023-03-18T18:21:53.448Z,101070.84
2023-03-18T18:24:25.813Z,101075.80
2023-03-18T18:26:55.108Z,101077.04
2023-03-18T18:29:24.463Z,101080.25
2023-03-18T18:31:58.710Z,101081.64
2023-03-18T18:34:27.996Z,101079.37
2023-03-18T18:36:56.330Z,101083.55
2023-03-18T18:39:24.648Z,101086.08
2023-03-18T18:42:08.278Z,101083.19
2023-03-18T18:44:38.736Z,101080.48
2023-03-18T18:47:19.963Z,101082.36
2023-03-18T18:49:54.116Z,101079.81
2023-03-18T18:52:23.193Z,101079.48
2023-03-18T18:54:52.260Z,101084.09
2023-03-18T18:57:24.792Z,101084.09
2023-03-18T18:59:53.451Z,101082.88
2023-03-18T19:02:33.780Z,101081.41
2023-03-18T19:05:04.730Z,101082.44
2023-03-18T19:07:33.833Z,101087.90
2023-03-18T19:10:02.124Z,101089.50
2023-03-18T19:12:31.086Z,101093.02
2023-03-18T19:14:59.871Z,101094.30
2023-03-18T19:17:28.459Z,101093.08
2023-03-18T19:19:56.902Z,101093.77
2023-03-18T19:22:26.258Z,101099.06
2023-03-18T19:24:55.026Z,101099.46
2023-03-18T19:27:29.526Z,101101.17
2023-03-18T19:30:00.451Z,101102.64
2023-03-18T19:32:28.618Z,101104.44
2023-03-18T19:34:59.465Z,101107.42
2023-03-18T19:37:32.529Z,101105.81
2023-03-18T19:40:01.088Z,101104.35
2023-03-18T19:42:29.814Z,101103.67
2023-03-18T19:44:57.921Z,101104.72
2023-03-18T19:47:28.252Z,101104.70
2023-03-18T19:49:56.945Z,101106.11
2023-03-18T19:52:28.423Z,101101.73
2023-03-18T19:54:56.566Z,101099.93
2023-03-18T19:57:29.424Z,101098.75
2023-03-18T20:00:01.356Z,101093.02
2023-03-18T20:02:31.424Z,101089.75
2023-03-18T20:05:01.733Z,101090.09
2023-03-18T20:07:32.559Z,101087.48
2023-03-18T20:10:00.913Z,101084.73
2023-03-18T20:12:43.719Z,101084.23
2023-03-18T20:15:25.333Z,101085.71
2023-03-18T20:17:53.581Z,101085.59
2023-03-18T20:20:25.748Z,101080.48
2023-03-18T20:22:56.789Z,101079.73
2023-03-18T20:25:27.056Z,101079.23
2023-03-18T20:27:58.358Z,101078.23
2023-03-18T20:30:34.404Z,101078.38
2023-03-18T20:33:07.651Z,101073.60
2023-03-18T20:35:42.882Z,101071.77
2023-03-18T20:38:18.955Z,101071.72
2023-03-18T20:40:52.790Z,101069.66
2023-03-18T20:43:23.100Z,101074.55
2023-03-18T20:45:53.183Z,101071.65
2023-03-18T20:48:22.826Z,101074.15
2023-03-18T20:50:52.516Z,101072.86
2023-03-18T20:53:26.451Z,101068.73
2023-03-18T20:55:54.945Z,101067.77
2023-03-18T20:58:27.523Z,101069.91
2023-03-18T21:00:56.918Z,101067.31
2023-03-18T21:03:27.598Z,101065.79
2023-03-18T21:05:57.380Z,101064.02
2023-03-18T21:08:26.136Z,101061.91
2023-03-18T21:10:54.634Z,101058.45
2023-03-18T21:13:31.120Z,101059.77
2023-03-18T21:16:00.797Z,101060.65
2023-03-18T21:18:29.203Z,101063.15
2023-03-18T21:20:57.777Z,101058.94
2023-03-18T21:23:27.763Z,101059.48
2023-03-18T21:25:58.393Z,101062.11
2023-03-18T21:28:29.638Z,101061.70
2023-03-18T21:30:58.778Z,101060.31
2023-03-18T21:33:28.008Z,101062.77
2023-03-18T21:35:59.645Z,101059.52
2023-03-18T21:38:29.522Z,101062.65
2023-03-18T21:40:58.744Z,101064.83
2023-03-18T21:43:34.783Z,101069.33
2023-03-18T21:46:05.451Z,101067.30
2023-03-18T21:48:33.790Z,101069.05
2023-03-18T21:51:01.905Z,101068.17
2023-03-18T21:53:30.225Z,101071.24
2023-03-18T21:56:03.542Z,101073.23
2023-03-18T21:58:33.962Z,101073.02
2023-03-18T22:01:02.147Z,101069.14
2023-03-18T22:03:33.207Z,101066.56
2023-03-18T22:06:01.306Z,101067.91
2023-03-18T22:08:31.276Z,101071.12
2023-03-18T22:10:59.572Z,101070.58
2023-03-18T22:13:27.751Z,101069.19
2023-03-18T22:15:57.781Z,101069.23
2023-03-18T22:18:29.392Z,101068.38
2023-03-18T22:20:57.433Z,101071.31
2023-03-18T22:23:31.273Z,101070.84
2023-03-18T22:25:59.779Z,101066.40
2023-03-18T22:28:32.445Z,101067.27
2023-03-18T22:31:03.315Z,101067.30
2023-03-18T22:33:32.691Z,101067.17
2023-03-18T22:36:01.431Z,101072.31
2023-03-18T22:38:32.987Z,101072.67
2023-03-18T22:41:04.977Z,101069.89
2023-03-18T22:43:36.337Z,101064.70
2023-03-18T22:46:06.608Z,101058.91
2023-03-18T22:48:36.675Z,101061.93
2023-03-18T22:51:05.576Z,101061.95
2023-03-18T22:53:38.452Z,101060.04
2023-03-18T22:56:09.254Z,101060.30
2023-03-18T22:58:37.564Z,101061.41
2023-03-18T23:01:06.789Z,101060.15
2023-03-18T23:03:36.459Z,101059.20
2023-03-18T23:06:05.162Z,101057.86
2023-03-18T23:08:34.362Z,101051.39
2023-03-18T23:11:02.604Z,101050.20
2023-03-18T23:13:37.074Z,101047.83
2023-03-18T23:16:07.298Z,101045.39
2023-03-18T23:18:35.636Z,101041.40
2023-03-18T23:21:14.030Z,101041.33
2023-03-18T23:23:44.005Z,101036.37
2023-03-18T23:26:12.623Z,101030.60
2023-03-18T23:28:44.880Z,101033.20
2023-03-18T23:31:14.820Z,101029.28
2023-03-18T23:33:44.976Z,101027.56
2023-03-18T23:36:13.457Z,101023.11
2023-03-18T23:38:45.487Z,101023.49
2023-03-18T23:41:13.587Z,101017.95
2023-03-18T23:43:51.136Z,101018.84
2023-03-18T23:46:19.693Z,101015.08
2023-03-18T23:48:48.159Z,101012.48
2023-03-18T23:51:16.344Z,101009.96
2023-03-18T23:53:44.852Z,101006.64
2023-03-18T23:56:17.422Z,101003.57
2023-03-18T23:58:46.804Z,101000.52
